createdAt,value
2018-12-07T00:00:38.871Z,12.27
2018-12-07T00:01:39.302Z,12.28
2018-12-07T00:02:39.752Z,12.29
2018-12-07T00:03:40.229Z,12.30
2018-12-07T00:04:40.644Z,12.31
2018-12-07T00:05:40.951Z,12.31
2018-12-07T00:06:41.417Z,12.32
2018-12-07T00:07:42.202Z,12.32
2018-12-07T00:08:42.636Z,12.33
2018-12-07T00:09:43.116Z,12.33
2018-12-07T00:10:43.748Z,12.33
2018-12-07T00:11:44.379Z,12.33
2018-12-07T00:12:44.923Z,12.34
2018-12-07T00:13:45.263Z,12.34
2018-12-07T00:14:45.777Z,12.34
2018-12-07T00:15:46.499Z,12.33
2018-12-07T00:16:47.324Z,12.33
2018-12-07T00:17:47.872Z,12.33
2018-12-07T00:18:48.331Z,12.32
2018-12-07T00:19:48.989Z,12.32
2018-12-07T00:20:49.441Z,12.32
2018-12-07T00:21:49.911Z,12.32
2018-12-07T00:22:50.240Z,12.32
2018-12-07T00:23:50.619Z,12.32
2018-12-07T00:24:50.989Z,12.31
2018-12-07T00:25:01.047Z,12.29
2018-12-07T00:26:01.561Z,12.29
2018-12-07T00:27:02.395Z,12.29
2018-12-07T00:28:02.816Z,12.29
2018-12-07T00:29:03.394Z,12.29
2018-12-07T00:30:03.935Z,12.29
2018-12-07T00:31:04.371Z,12.29
2018-12-07T00:32:04.928Z,12.29
2018-12-07T00:33:05.618Z,12.29
2018-12-07T00:34:06.072Z,12.29
2018-12-07T00:35:06.633Z,12.29
2018-12-07T00:36:07.074Z,12.28
2018-12-07T00:37:07.470Z,12.28
2018-12-07T00:38:06.821Z,12.28
2018-12-07T00:39:08.242Z,12.28
2018-12-07T00:40:08.842Z,12.28
2018-12-07T00:41:09.308Z,12.28
2018-12-07T00:42:10.141Z,12.27
2018-12-07T00:43:10.523Z,12.27
2018-12-07T00:44:11.227Z,12.27
2018-12-07T00:45:11.782Z,12.26
2018-12-07T00:46:12.136Z,12.26
2018-12-07T00:47:12.506Z,12.26
2018-12-07T00:48:12.952Z,12.26
2018-12-07T00:49:13.225Z,12.26
2018-12-07T00:50:14.089Z,12.26
2018-12-07T00:51:14.864Z,12.25
2018-12-07T00:52:15.159Z,12.25
2018-12-07T00:53:15.484Z,12.25
2018-12-07T00:54:15.775Z,12.25
2018-12-07T00:55:16.205Z,12.25
2018-12-07T00:56:16.673Z,12.25
2018-12-07T00:57:17.053Z,12.25
2018-12-07T00:58:17.533Z,12.25
2018-12-07T00:59:17.898Z,12.25
2018-12-07T01:00:18.438Z,12.25
2018-12-07T01:01:18.867Z,12.25
2018-12-07T01:02:19.168Z,12.25
2018-12-07T01:03:19.468Z,12.25
2018-12-07T01:04:19.848Z,12.25
2018-12-07T01:05:20.398Z,12.26
2018-12-07T01:06:20.926Z,12.26
2018-12-07T01:07:21.252Z,12.26
2018-12-07T01:08:21.552Z,12.27
2018-12-07T01:09:21.858Z,12.27
2018-12-07T01:10:22.217Z,12.27
2018-12-07T01:10:30.635Z,12.29
2018-12-07T01:11:31.996Z,12.29
2018-12-07T01:12:32.398Z,12.29
2018-12-07T01:13:33.033Z,12.29
2018-12-07T01:14:33.494Z,12.29
2018-12-07T01:15:33.886Z,12.30
2018-12-07T01:16:34.278Z,12.30
2018-12-07T01:17:34.657Z,12.30
2018-12-07T01:18:35.091Z,12.30
2018-12-07T01:19:35.650Z,12.30
2018-12-07T01:20:36.027Z,12.30
2018-12-07T01:21:36.490Z,12.30
2018-12-07T01:22:36.777Z,12.31
2018-12-07T01:23:37.407Z,12.30
2018-12-07T01:24:37.765Z,12.30
2018-12-07T01:25:38.241Z,12.30
2018-12-07T01:26:39.107Z,12.31
2018-12-07T01:27:39.505Z,12.31
2018-12-07T01:28:39.871Z,12.31
2018-12-07T01:29:40.500Z,12.31
2018-12-07T01:30:39.710Z,12.31
2018-12-07T01:31:41.559Z,12.31
2018-12-07T01:32:42.963Z,12.31
2018-12-07T01:33:42.761Z,12.31
2018-12-07T01:34:43.076Z,12.31
2018-12-07T01:35:43.575Z,12.31
2018-12-07T01:36:43.931Z,12.31
2018-12-07T01:37:44.163Z,12.32
2018-12-07T01:38:44.741Z,12.32
2018-12-07T01:39:45.229Z,12.32
2018-12-07T01:40:46.088Z,12.33
2018-12-07T01:41:46.571Z,12.33
2018-12-07T01:42:46.859Z,12.33
2018-12-07T01:43:47.208Z,12.33
2018-12-07T01:44:47.626Z,12.33
2018-12-07T01:45:47.855Z,12.33
2018-12-07T01:46:48.220Z,12.34
2018-12-07T01:47:48.673Z,12.34
2018-12-07T01:48:49.028Z,12.34
2018-12-07T01:49:49.470Z,12.34
2018-12-07T01:50:49.900Z,12.34
2018-12-07T01:51:49.285Z,12.35
2018-12-07T01:52:51.014Z,12.35
2018-12-07T01:53:51.410Z,12.35
2018-12-07T01:54:00.407Z,12.37
2018-12-07T01:55:00.948Z,12.36
2018-12-07T01:56:01.295Z,12.36
2018-12-07T01:57:01.698Z,12.36
2018-12-07T01:58:02.117Z,12.36
2018-12-07T01:59:02.541Z,12.36
2018-12-07T02:00:02.910Z,12.36
2018-12-07T02:01:03.314Z,12.36
2018-12-07T02:02:03.823Z,12.36
2018-12-07T02:03:04.131Z,12.36
2018-12-07T02:04:04.766Z,12.36
2018-12-07T02:05:05.084Z,12.35
2018-12-07T02:06:08.380Z,12.35
2018-12-07T02:07:05.764Z,12.35
2018-12-07T02:08:06.088Z,12.34
2018-12-07T02:09:06.393Z,12.34
2018-12-07T02:10:06.902Z,12.33
2018-12-07T02:11:07.458Z,12.32
2018-12-07T02:12:07.833Z,12.32
2018-12-07T02:13:08.211Z,12.31
2018-12-07T02:14:08.944Z,12.30
2018-12-07T02:15:09.392Z,12.29
2018-12-07T02:16:09.792Z,12.28
2018-12-07T02:17:10.185Z,12.27
2018-12-07T02:18:10.592Z,12.26
2018-12-07T02:19:11.036Z,12.25
2018-12-07T02:20:11.326Z,12.24
2018-12-07T02:21:12.108Z,12.23
2018-12-07T02:22:12.629Z,12.22
2018-12-07T02:23:13.005Z,12.21
2018-12-07T02:24:13.492Z,12.20
2018-12-07T02:25:14.147Z,12.20
2018-12-07T02:26:14.870Z,12.19
2018-12-07T02:27:15.312Z,12.18
2018-12-07T02:28:15.924Z,12.17
2018-12-07T02:29:16.283Z,12.17
2018-12-07T02:30:15.693Z,12.16
2018-12-07T02:31:17.117Z,12.16
2018-12-07T02:32:17.866Z,12.15
2018-12-07T02:33:18.335Z,12.15
2018-12-07T02:34:18.978Z,12.14
2018-12-07T02:35:19.492Z,12.13
2018-12-07T02:36:20.164Z,12.13
2018-12-07T02:37:20.527Z,12.12
2018-12-07T02:38:20.942Z,12.12
2018-12-07T02:39:21.429Z,12.11
2018-12-07T02:39:29.710Z,12.00
2018-12-07T02:40:34.062Z,12.00
2018-12-07T02:41:31.676Z,12.00
2018-12-07T02:42:31.962Z,12.00
2018-12-07T02:43:32.442Z,12.00
2018-12-07T02:44:32.794Z,12.00
2018-12-07T02:45:33.444Z,12.00
2018-12-07T02:46:33.967Z,12.00
2018-12-07T02:47:34.187Z,12.00
2018-12-07T02:48:34.537Z,11.99
2018-12-07T02:49:34.892Z,11.99
2018-12-07T02:50:35.191Z,11.99
2018-12-07T02:51:35.659Z,11.98
2018-12-07T02:52:35.993Z,11.98
2018-12-07T02:53:36.379Z,11.98
2018-12-07T02:54:36.669Z,11.98
2018-12-07T02:55:36.910Z,11.98
2018-12-07T02:56:37.312Z,11.98
2018-12-07T02:57:37.668Z,11.98
2018-12-07T02:58:37.914Z,11.98
2018-12-07T02:59:38.260Z,11.98
2018-12-07T03:00:38.648Z,11.98
2018-12-07T03:01:37.917Z,11.98
2018-12-07T03:02:39.276Z,11.98
2018-12-07T03:03:39.574Z,11.98
2018-12-07T03:04:39.938Z,11.98
2018-12-07T03:05:40.234Z,11.98
2018-12-07T03:06:40.602Z,11.98
2018-12-07T03:07:40.990Z,11.98
2018-12-07T03:08:41.261Z,11.98
2018-12-07T03:09:41.559Z,11.99
2018-12-07T03:10:42.040Z,11.99
2018-12-07T03:11:42.455Z,11.99
2018-12-07T03:12:42.944Z,12.00
2018-12-07T03:13:43.177Z,12.00
2018-12-07T03:14:42.516Z,12.00
2018-12-07T03:15:43.821Z,12.01
2018-12-07T03:16:44.100Z,12.01
2018-12-07T03:17:44.480Z,12.02
2018-12-07T03:18:44.756Z,12.02
2018-12-07T03:19:45.149Z,12.02
2018-12-07T03:20:44.664Z,12.02
2018-12-07T03:21:46.271Z,12.03
2018-12-07T03:22:46.930Z,12.03
2018-12-07T03:23:47.214Z,12.04
2018-12-07T03:24:47.507Z,12.04
2018-12-07T03:25:47.944Z,12.05
2018-12-07T03:25:56.473Z,12.11
2018-12-07T03:26:57.704Z,12.11
2018-12-07T03:27:58.131Z,12.11
2018-12-07T03:28:58.516Z,12.11
2018-12-07T03:29:58.921Z,12.11
2018-12-07T03:30:59.260Z,12.11
2018-12-07T03:32:00.631Z,12.11
2018-12-07T03:32:59.965Z,12.11
2018-12-07T03:34:00.304Z,12.11
2018-12-07T03:35:00.807Z,12.12
2018-12-07T03:36:01.354Z,12.12
2018-12-07T03:37:01.637Z,12.12
2018-12-07T03:38:01.875Z,12.12
2018-12-07T03:39:02.184Z,12.12
2018-12-07T03:40:02.487Z,12.11
2018-12-07T03:41:02.900Z,12.11
2018-12-07T03:42:03.186Z,12.11
2018-12-07T03:43:03.635Z,12.11
2018-12-07T03:44:04.337Z,12.11
2018-12-07T03:45:04.619Z,12.11
2018-12-07T03:46:04.976Z,12.11
2018-12-07T03:47:05.434Z,12.11
2018-12-07T03:48:05.730Z,12.10
2018-12-07T03:49:06.154Z,12.10
2018-12-07T03:50:06.469Z,12.10
2018-12-07T03:51:05.825Z,12.10
2018-12-07T03:52:07.236Z,12.09
2018-12-07T03:53:06.962Z,12.09
2018-12-07T03:54:08.495Z,12.09
2018-12-07T03:55:08.767Z,12.09
2018-12-07T03:56:09.122Z,12.09
2018-12-07T03:57:09.636Z,12.09
2018-12-07T03:58:09.688Z,12.09
2018-12-07T03:59:10.047Z,12.08
2018-12-07T04:00:10.540Z,12.08
2018-12-07T04:01:11.128Z,12.08
2018-12-07T04:02:11.736Z,12.08
2018-12-07T04:03:12.088Z,12.08
2018-12-07T04:04:12.384Z,12.08
2018-12-07T04:05:12.750Z,12.08
2018-12-07T04:06:13.081Z,12.08
2018-12-07T04:07:13.360Z,12.09
2018-12-07T04:08:13.722Z,12.09
2018-12-07T04:09:14.101Z,12.08
2018-12-07T04:10:14.488Z,12.08
2018-12-07T04:11:14.987Z,12.07
2018-12-07T04:11:24.072Z,12.02
2018-12-07T04:12:24.799Z,12.01
2018-12-07T04:13:25.622Z,12.01
2018-12-07T04:14:26.423Z,12.01
2018-12-07T04:15:26.862Z,12.01
2018-12-07T04:16:27.339Z,12.01
2018-12-07T04:17:27.941Z,12.00
2018-12-07T04:18:28.514Z,12.00
2018-12-07T04:19:28.854Z,11.99
2018-12-07T04:20:29.143Z,11.99
2018-12-07T04:21:29.546Z,11.98
2018-12-07T04:22:29.834Z,11.97
2018-12-07T04:23:30.115Z,11.96
2018-12-07T04:24:30.454Z,11.96
2018-12-07T04:25:30.975Z,11.95
2018-12-07T04:26:31.497Z,11.94
2018-12-07T04:27:31.768Z,11.93
2018-12-07T04:28:32.555Z,11.93
2018-12-07T04:29:32.978Z,11.92
2018-12-07T04:30:33.454Z,11.91
2018-12-07T04:31:32.652Z,11.90
2018-12-07T04:32:33.982Z,11.90
2018-12-07T04:33:34.306Z,11.89
2018-12-07T04:34:34.600Z,11.88
2018-12-07T04:35:34.863Z,11.87
2018-12-07T04:36:35.233Z,11.87
2018-12-07T04:37:34.455Z,11.86
2018-12-07T04:38:36.220Z,11.85
2018-12-07T04:39:36.729Z,11.85
2018-12-07T04:40:37.012Z,11.84
2018-12-07T04:41:37.289Z,11.83
2018-12-07T04:42:37.584Z,11.83
2018-12-07T04:43:37.921Z,11.82
2018-12-07T04:44:38.230Z,11.82
2018-12-07T04:45:38.651Z,11.81
2018-12-07T04:46:37.875Z,11.81
2018-12-07T04:47:39.303Z,11.80
2018-12-07T04:48:39.699Z,11.80
2018-12-07T04:49:39.989Z,11.79
2018-12-07T04:50:40.316Z,11.79
2018-12-07T04:51:40.632Z,11.78
2018-12-07T04:52:40.971Z,11.78
2018-12-07T04:53:41.446Z,11.77
2018-12-07T04:54:41.799Z,11.77
2018-12-07T04:54:50.144Z,11.65
2018-12-07T04:55:51.485Z,11.65
2018-12-07T04:56:51.793Z,11.65
2018-12-07T04:57:52.204Z,11.65
2018-12-07T04:58:52.733Z,11.65
2018-12-07T04:59:53.046Z,11.65
2018-12-07T05:00:53.394Z,11.65
2018-12-07T05:01:53.808Z,11.65
2018-12-07T05:02:54.324Z,11.64
2018-12-07T05:03:54.674Z,11.64
2018-12-07T05:04:55.331Z,11.65
2018-12-07T05:05:55.779Z,11.65
2018-12-07T05:06:56.325Z,11.66
2018-12-07T05:07:56.976Z,11.66
2018-12-07T05:08:57.453Z,11.66
2018-12-07T05:09:57.754Z,11.66
2018-12-07T05:10:58.269Z,11.67
2018-12-07T05:11:58.563Z,11.67
2018-12-07T05:12:58.942Z,11.68
2018-12-07T05:13:59.348Z,11.68
2018-12-07T05:14:59.658Z,11.69
2018-12-07T05:15:59.976Z,11.70
2018-12-07T05:17:00.354Z,11.71
2018-12-07T05:18:00.618Z,11.72
2018-12-07T05:19:01.312Z,11.72
2018-12-07T05:20:01.728Z,11.73
2018-12-07T05:21:02.000Z,11.73
2018-12-07T05:22:02.303Z,11.74
2018-12-07T05:23:02.604Z,11.74
2018-12-07T05:24:03.120Z,11.74
2018-12-07T05:25:03.558Z,11.74
2018-12-07T05:26:03.854Z,11.74
2018-12-07T05:27:04.189Z,11.74
2018-12-07T05:28:04.501Z,11.75
2018-12-07T05:29:04.819Z,11.75
2018-12-07T05:30:05.200Z,11.75
2018-12-07T05:31:05.550Z,11.75
2018-12-07T05:32:06.093Z,11.76
2018-12-07T05:33:06.548Z,11.76
2018-12-07T05:34:06.900Z,11.77
2018-12-07T05:35:07.307Z,11.78
2018-12-07T05:36:07.641Z,11.78
2018-12-07T05:37:08.059Z,11.79
2018-12-07T05:38:07.616Z,11.80
2018-12-07T05:39:09.209Z,11.81
2018-12-07T05:39:17.629Z,11.89
2018-12-07T05:40:19.010Z,11.89
2018-12-07T05:41:19.330Z,11.89
2018-12-07T05:42:19.990Z,11.88
2018-12-07T05:43:20.276Z,11.88
2018-12-07T05:44:20.628Z,11.88
2018-12-07T05:45:20.907Z,11.87
2018-12-07T05:46:21.204Z,11.87
2018-12-07T05:47:21.570Z,11.86
2018-12-07T05:48:23.793Z,11.86
2018-12-07T05:49:21.560Z,11.85
2018-12-07T05:50:22.856Z,11.85
2018-12-07T05:51:23.151Z,11.85
2018-12-07T05:52:23.556Z,11.84
2018-12-07T05:53:24.132Z,11.85
2018-12-07T05:54:24.551Z,11.85
2018-12-07T05:55:24.857Z,11.85
2018-12-07T05:56:25.464Z,11.85
2018-12-07T05:57:25.825Z,11.85
2018-12-07T05:58:26.248Z,11.85
2018-12-07T05:59:26.604Z,11.85
2018-12-07T06:00:27.373Z,11.85
2018-12-07T06:01:27.654Z,11.84
2018-12-07T06:02:28.065Z,11.84
2018-12-07T06:03:28.499Z,11.84
2018-12-07T06:04:28.894Z,11.83
2018-12-07T06:05:29.298Z,11.83
2018-12-07T06:06:29.642Z,11.83
2018-12-07T06:07:29.939Z,11.82
2018-12-07T06:08:30.442Z,11.81
2018-12-07T06:09:30.764Z,11.81
2018-12-07T06:10:31.585Z,11.80
2018-12-07T06:11:32.369Z,11.80
2018-12-07T06:12:32.844Z,11.79
2018-12-07T06:13:33.308Z,11.79
2018-12-07T06:14:34.835Z,11.78
2018-12-07T06:15:33.886Z,11.77
2018-12-07T06:16:34.196Z,11.77
2018-12-07T06:17:34.849Z,11.76
2018-12-07T06:18:35.199Z,11.76
2018-12-07T06:19:35.557Z,11.76
2018-12-07T06:20:36.273Z,11.75
2018-12-07T06:21:36.603Z,11.75
2018-12-07T06:22:37.063Z,11.75
2018-12-07T06:23:38.614Z,11.75
2018-12-07T06:24:38.525Z,11.75
2018-12-07T06:24:46.908Z,11.76
2018-12-07T06:25:48.299Z,11.76
2018-12-07T06:26:47.941Z,11.75
2018-12-07T06:27:49.474Z,11.75
2018-12-07T06:28:50.033Z,11.75
2018-12-07T06:29:50.314Z,11.74
2018-12-07T06:30:50.672Z,11.74
2018-12-07T06:31:50.982Z,11.74
2018-12-07T06:32:51.509Z,11.73
2018-12-07T06:33:51.886Z,11.73
2018-12-07T06:34:52.244Z,11.73
2018-12-07T06:35:52.494Z,11.73
2018-12-07T06:36:53.045Z,11.72
2018-12-07T06:37:53.359Z,11.72
2018-12-07T06:38:53.738Z,11.72
2018-12-07T06:39:54.211Z,11.72
2018-12-07T06:40:54.625Z,11.72
2018-12-07T06:41:55.054Z,11.72
2018-12-07T06:42:55.510Z,11.72
2018-12-07T06:43:55.963Z,11.71
2018-12-07T06:44:56.342Z,11.71
2018-12-07T06:45:56.796Z,11.71
2018-12-07T06:46:57.488Z,11.71
2018-12-07T06:47:57.947Z,11.71
2018-12-07T06:48:58.280Z,11.71
2018-12-07T06:49:59.007Z,11.71
2018-12-07T06:50:59.295Z,11.70
2018-12-07T06:51:59.633Z,11.70
2018-12-07T06:52:59.919Z,11.70
2018-12-07T06:54:00.244Z,11.70
2018-12-07T06:55:00.625Z,11.69
2018-12-07T06:56:00.843Z,11.69
2018-12-07T06:57:01.115Z,11.69
2018-12-07T06:58:01.324Z,11.68
2018-12-07T06:59:01.711Z,11.68
2018-12-07T07:00:02.201Z,11.68
2018-12-07T07:01:02.399Z,11.68
2018-12-07T07:02:02.738Z,11.68
2018-12-07T07:03:02.975Z,11.68
2018-12-07T07:04:03.297Z,11.67
2018-12-07T07:05:03.612Z,11.67
2018-12-07T07:06:03.991Z,11.66
2018-12-07T07:07:05.373Z,11.66
2018-12-07T07:08:03.868Z,11.65
2018-12-07T07:09:05.274Z,11.65
2018-12-07T07:10:05.575Z,11.65
2018-12-07T07:10:13.963Z,11.63
2018-12-07T07:11:15.338Z,11.63
2018-12-07T07:12:15.707Z,11.63
2018-12-07T07:13:16.314Z,11.63
2018-12-07T07:14:16.654Z,11.63
2018-12-07T07:15:16.976Z,11.63
2018-12-07T07:16:22.935Z,11.63
2018-12-07T07:17:17.290Z,11.63
2018-12-07T07:18:18.625Z,11.63
2018-12-07T07:19:18.827Z,11.63
2018-12-07T07:20:19.160Z,11.63
2018-12-07T07:21:19.420Z,11.63
2018-12-07T07:22:19.700Z,11.63
2018-12-07T07:23:20.361Z,11.63
2018-12-07T07:24:20.767Z,11.63
2018-12-07T07:25:21.144Z,11.63
2018-12-07T07:26:21.429Z,11.63
2018-12-07T07:27:21.630Z,11.63
2018-12-07T07:28:21.672Z,11.63
2018-12-07T07:29:22.370Z,11.63
2018-12-07T07:30:22.749Z,11.63
2018-12-07T07:31:23.140Z,11.63
2018-12-07T07:32:23.541Z,11.63
2018-12-07T07:33:23.956Z,11.63
2018-12-07T07:34:24.449Z,11.62
2018-12-07T07:35:24.838Z,11.62
2018-12-07T07:36:25.147Z,11.62
2018-12-07T07:37:25.336Z,11.62
2018-12-07T07:38:26.062Z,11.62
2018-12-07T07:39:26.427Z,11.62
2018-12-07T07:40:26.684Z,11.61
2018-12-07T07:41:28.025Z,11.61
2018-12-07T07:42:27.517Z,11.61
2018-12-07T07:43:26.672Z,11.61
2018-12-07T07:44:28.183Z,11.61
2018-12-07T07:45:28.573Z,11.61
2018-12-07T07:46:28.854Z,11.60
2018-12-07T07:47:29.171Z,11.60
2018-12-07T07:48:29.587Z,11.60
2018-12-07T07:49:30.215Z,11.60
2018-12-07T07:50:30.514Z,11.60
2018-12-07T07:51:30.817Z,11.60
2018-12-07T07:52:31.272Z,11.60
2018-12-07T07:53:31.602Z,11.60
2018-12-07T07:54:31.970Z,11.61
2018-12-07T07:55:32.269Z,11.61
2018-12-07T07:56:32.593Z,11.62
2018-12-07T07:56:40.630Z,11.65
2018-12-07T07:57:41.885Z,11.65
2018-12-07T07:58:42.251Z,11.65
2018-12-07T07:59:42.678Z,11.64
2018-12-07T08:00:42.944Z,11.64
2018-12-07T08:01:43.224Z,11.64
2018-12-07T08:02:43.639Z,11.63
2018-12-07T08:03:43.954Z,11.63
2018-12-07T08:04:44.235Z,11.63
2018-12-07T08:05:44.598Z,11.63
2018-12-07T08:06:44.966Z,11.63
2018-12-07T08:07:45.731Z,11.63
2018-12-07T08:08:46.094Z,11.63
2018-12-07T08:09:46.449Z,11.63
2018-12-07T08:10:48.055Z,11.63
2018-12-07T08:11:47.523Z,11.63
2018-12-07T08:12:47.824Z,11.63
2018-12-07T08:13:48.180Z,11.63
2018-12-07T08:14:48.515Z,11.63
2018-12-07T08:15:49.064Z,11.64
2018-12-07T08:16:49.307Z,11.63
2018-12-07T08:17:49.640Z,11.63
2018-12-07T08:18:49.994Z,11.63
2018-12-07T08:19:50.643Z,11.62
2018-12-07T08:20:50.908Z,11.62
2018-12-07T08:21:51.260Z,11.62
2018-12-07T08:22:51.576Z,11.61
2018-12-07T08:23:51.854Z,11.61
2018-12-07T08:24:52.400Z,11.61
2018-12-07T08:25:52.782Z,11.60
2018-12-07T08:26:53.189Z,11.60
2018-12-07T08:27:53.767Z,11.59
2018-12-07T08:28:54.701Z,11.59
2018-12-07T08:29:54.997Z,11.59
2018-12-07T08:30:55.311Z,11.59
2018-12-07T08:31:55.701Z,11.58
2018-12-07T08:32:56.005Z,11.58
2018-12-07T08:33:56.528Z,11.58
2018-12-07T08:34:56.794Z,11.57
2018-12-07T08:35:57.504Z,11.57
2018-12-07T08:36:57.869Z,11.57
2018-12-07T08:37:58.255Z,11.56
2018-12-07T08:38:58.597Z,11.56
2018-12-07T08:39:58.876Z,11.56
2018-12-07T08:40:59.135Z,11.55
2018-12-07T08:42:06.539Z,11.55
2018-12-07T08:42:07.765Z,11.45
2018-12-07T08:43:09.346Z,11.45
2018-12-07T08:44:09.736Z,11.45
2018-12-07T08:45:10.059Z,11.45
2018-12-07T08:46:10.425Z,11.44
2018-12-07T08:47:10.722Z,11.44
2018-12-07T08:48:11.059Z,11.44
2018-12-07T08:49:11.580Z,11.43
2018-12-07T08:50:10.819Z,11.43
2018-12-07T08:51:12.180Z,11.43
2018-12-07T08:52:12.727Z,11.42
2018-12-07T08:53:13.381Z,11.42
2018-12-07T08:54:13.742Z,11.41
2018-12-07T08:55:14.218Z,11.41
2018-12-07T08:56:14.636Z,11.41
2018-12-07T08:57:14.927Z,11.40
2018-12-07T08:58:15.194Z,11.40
2018-12-07T08:59:15.552Z,11.40
2018-12-07T09:00:16.009Z,11.40
2018-12-07T09:01:16.573Z,11.39
2018-12-07T09:02:17.128Z,11.39
2018-12-07T09:03:17.514Z,11.39
2018-12-07T09:04:18.076Z,11.38
2018-12-07T09:05:17.628Z,11.38
2018-12-07T09:06:18.972Z,11.38
2018-12-07T09:07:19.477Z,11.38
2018-12-07T09:08:19.808Z,11.38
2018-12-07T09:09:20.166Z,11.38
2018-12-07T09:10:20.594Z,11.38
2018-12-07T09:11:20.887Z,11.38
2018-12-07T09:12:21.284Z,11.37
2018-12-07T09:13:21.591Z,11.37
2018-12-07T09:14:22.007Z,11.37
2018-12-07T09:15:22.370Z,11.37
2018-12-07T09:16:21.703Z,11.37
2018-12-07T09:17:23.103Z,11.37
2018-12-07T09:18:23.673Z,11.37
2018-12-07T09:19:22.980Z,11.37
2018-12-07T09:20:26.545Z,11.37
2018-12-07T09:21:24.236Z,11.37
2018-12-07T09:22:25.656Z,11.38
2018-12-07T09:23:26.505Z,11.38
2018-12-07T09:24:27.045Z,11.38
2018-12-07T09:25:27.492Z,11.38
2018-12-07T09:26:27.887Z,11.38
2018-12-07T09:27:28.233Z,11.38
2018-12-07T09:28:28.940Z,11.38
2018-12-07T09:29:29.292Z,11.38
2018-12-07T09:29:37.702Z,11.30
2018-12-07T09:30:38.492Z,11.30
2018-12-07T09:31:38.910Z,11.30
2018-12-07T09:32:39.759Z,11.30
2018-12-07T09:33:40.083Z,11.30
2018-12-07T09:34:40.389Z,11.30
2018-12-07T09:35:40.836Z,11.30
2018-12-07T09:36:42.392Z,11.30
2018-12-07T09:37:41.871Z,11.29
2018-12-07T09:38:42.348Z,11.29
2018-12-07T09:39:42.908Z,11.29
2018-12-07T09:40:43.122Z,11.28
2018-12-07T09:41:43.389Z,11.28
2018-12-07T09:42:43.911Z,11.28
2018-12-07T09:43:44.285Z,11.28
2018-12-07T09:44:44.498Z,11.27
2018-12-07T09:45:44.788Z,11.27
2018-12-07T09:46:45.273Z,11.27
2018-12-07T09:47:45.592Z,11.27
2018-12-07T09:48:46.003Z,11.27
2018-12-07T09:49:46.744Z,11.27
2018-12-07T09:50:47.096Z,11.27
2018-12-07T09:51:47.419Z,11.28
2018-12-07T09:52:47.908Z,11.28
2018-12-07T09:53:48.192Z,11.28
2018-12-07T09:54:48.395Z,11.28
2018-12-07T09:55:48.775Z,11.28
2018-12-07T09:56:49.271Z,11.28
2018-12-07T09:57:49.486Z,11.28
2018-12-07T09:58:49.809Z,11.29
2018-12-07T09:59:50.597Z,11.29
2018-12-07T10:00:51.026Z,11.29
2018-12-07T10:01:51.885Z,11.29
2018-12-07T10:02:52.399Z,11.30
2018-12-07T10:03:52.869Z,11.30
2018-12-07T10:04:53.271Z,11.30
2018-12-07T10:05:53.618Z,11.30
2018-12-07T10:06:53.956Z,11.31
2018-12-07T10:07:54.283Z,11.31
2018-12-07T10:08:54.579Z,11.31
2018-12-07T10:09:54.929Z,11.32
2018-12-07T10:10:55.429Z,11.32
2018-12-07T10:11:55.649Z,11.32
2018-12-07T10:12:56.081Z,11.33
2018-12-07T10:13:56.423Z,11.33
2018-12-07T10:14:04.745Z,11.38
2018-12-07T10:15:06.029Z,11.38
2018-12-07T10:16:06.470Z,11.38
2018-12-07T10:17:06.826Z,11.39
2018-12-07T10:18:07.275Z,11.39
2018-12-07T10:19:07.872Z,11.39
2018-12-07T10:20:08.375Z,11.40
2018-12-07T10:21:08.976Z,11.40
2018-12-07T10:22:09.894Z,11.40
2018-12-07T10:23:10.179Z,11.41
2018-12-07T10:24:10.965Z,11.41
2018-12-07T10:25:11.135Z,11.41
2018-12-07T10:26:11.529Z,11.41
2018-12-07T10:27:11.927Z,11.42
2018-12-07T10:28:12.397Z,11.42
2018-12-07T10:29:12.754Z,11.42
2018-12-07T10:30:12.973Z,11.42
2018-12-07T10:31:13.652Z,11.42
2018-12-07T10:32:14.036Z,11.42
2018-12-07T10:33:14.233Z,11.42
2018-12-07T10:34:14.543Z,11.43
2018-12-07T10:35:14.774Z,11.43
2018-12-07T10:36:15.334Z,11.43
2018-12-07T10:37:15.789Z,11.43
2018-12-07T10:38:16.136Z,11.43
2018-12-07T10:39:16.388Z,11.43
2018-12-07T10:40:16.707Z,11.43
2018-12-07T10:41:16.966Z,11.43
2018-12-07T10:42:17.248Z,11.43
2018-12-07T10:43:17.615Z,11.43
2018-12-07T10:44:18.167Z,11.43
2018-12-07T10:45:19.483Z,11.43
2018-12-07T10:46:18.858Z,11.43
2018-12-07T10:47:19.091Z,11.43
2018-12-07T10:48:19.304Z,11.43
2018-12-07T10:49:20.335Z,11.43
2018-12-07T10:50:20.674Z,11.44
2018-12-07T10:51:21.004Z,11.44
2018-12-07T10:52:21.631Z,11.44
2018-12-07T10:53:21.924Z,11.45
2018-12-07T10:54:22.560Z,11.45
2018-12-07T10:55:22.885Z,11.46
2018-12-07T10:56:23.125Z,11.46
2018-12-07T10:57:23.378Z,11.46
2018-12-07T10:58:23.635Z,11.47
2018-12-07T10:58:31.997Z,11.54
2018-12-07T10:59:33.274Z,11.54
2018-12-07T11:00:33.566Z,11.54
2018-12-07T11:01:33.828Z,11.54
2018-12-07T11:02:34.453Z,11.53
2018-12-07T11:03:34.924Z,11.53
2018-12-07T11:04:35.199Z,11.53
2018-12-07T11:05:35.538Z,11.53
2018-12-07T11:06:35.945Z,11.54
2018-12-07T11:07:36.353Z,11.54
2018-12-07T11:08:36.915Z,11.54
2018-12-07T11:09:37.216Z,11.54
2018-12-07T11:10:37.725Z,11.54
2018-12-07T11:11:38.226Z,11.54
2018-12-07T11:12:37.778Z,11.54
2018-12-07T11:13:39.331Z,11.54
2018-12-07T11:14:39.868Z,11.55
2018-12-07T11:15:40.162Z,11.55
2018-12-07T11:16:40.729Z,11.55
2018-12-07T11:17:41.163Z,11.55
2018-12-07T11:18:41.622Z,11.56
2018-12-07T11:19:42.237Z,11.56
2018-12-07T11:20:43.115Z,11.56
2018-12-07T11:21:43.571Z,11.56
2018-12-07T11:22:44.450Z,11.56
2018-12-07T11:23:45.020Z,11.56
2018-12-07T11:24:45.248Z,11.56
2018-12-07T11:25:45.482Z,11.56
2018-12-07T11:26:45.985Z,11.56
2018-12-07T11:27:46.231Z,11.56
2018-12-07T11:28:46.784Z,11.56
2018-12-07T11:29:47.398Z,11.57
2018-12-07T11:30:47.925Z,11.57
2018-12-07T11:31:47.215Z,11.57
2018-12-07T11:32:48.877Z,11.57
2018-12-07T11:33:49.347Z,11.58
2018-12-07T11:34:49.790Z,11.58
2018-12-07T11:35:50.061Z,11.58
2018-12-07T11:36:50.504Z,11.59
2018-12-07T11:37:49.715Z,11.59
2018-12-07T11:38:51.037Z,11.60
2018-12-07T11:39:51.367Z,11.61
2018-12-07T11:40:51.621Z,11.61
2018-12-07T11:41:51.965Z,11.62
2018-12-07T11:42:52.516Z,11.62
2018-12-07T11:43:52.862Z,11.63
2018-12-07T11:44:53.403Z,11.63
2018-12-07T11:45:53.714Z,11.64
2018-12-07T11:46:02.036Z,11.75
2018-12-07T11:47:03.081Z,11.75
2018-12-07T11:48:03.384Z,11.75
2018-12-07T11:49:03.714Z,11.75
2018-12-07T11:50:04.200Z,11.74
2018-12-07T11:51:04.656Z,11.74
2018-12-07T11:52:04.925Z,11.74
2018-12-07T11:53:05.752Z,11.74
2018-12-07T11:54:06.254Z,11.74
2018-12-07T11:55:06.554Z,11.74
2018-12-07T11:56:06.885Z,11.74
2018-12-07T11:57:07.428Z,11.75
2018-12-07T11:58:07.865Z,11.74
2018-12-07T11:59:08.615Z,11.74
2018-12-07T12:00:08.656Z,11.74
2018-12-07T12:01:08.961Z,11.74
2018-12-07T12:02:09.340Z,11.74
2018-12-07T12:03:09.735Z,11.73
2018-12-07T12:04:10.126Z,11.73
2018-12-07T12:05:10.877Z,11.73
2018-12-07T12:06:11.205Z,11.73
2018-12-07T12:07:11.687Z,11.73
2018-12-07T12:08:12.118Z,11.72
2018-12-07T12:09:12.678Z,11.72
2018-12-07T12:10:12.994Z,11.72
2018-12-07T12:11:13.472Z,11.72
2018-12-07T12:12:13.988Z,11.72
2018-12-07T12:13:14.316Z,11.72
2018-12-07T12:14:14.612Z,11.72
2018-12-07T12:15:15.078Z,11.72
2018-12-07T12:16:15.417Z,11.72
2018-12-07T12:17:15.755Z,11.72
2018-12-07T12:18:16.133Z,11.72
2018-12-07T12:19:16.416Z,11.72
2018-12-07T12:20:15.750Z,11.72
2018-12-07T12:21:17.075Z,11.72
2018-12-07T12:22:17.317Z,11.72
2018-12-07T12:23:17.668Z,11.71
2018-12-07T12:24:18.551Z,11.71
2018-12-07T12:25:19.214Z,11.71
2018-12-07T12:26:19.722Z,11.71
2018-12-07T12:27:20.281Z,11.71
2018-12-07T12:28:20.614Z,11.71
2018-12-07T12:29:21.024Z,11.71
2018-12-07T12:30:21.394Z,11.70
2018-12-07T12:31:21.946Z,11.70
2018-12-07T12:31:30.244Z,11.72
2018-12-07T12:32:31.515Z,11.72
2018-12-07T12:33:31.960Z,11.72
2018-12-07T12:34:32.473Z,11.72
2018-12-07T12:35:32.905Z,11.73
2018-12-07T12:36:33.297Z,11.73
2018-12-07T12:37:33.797Z,11.73
2018-12-07T12:38:34.051Z,11.74
2018-12-07T12:39:34.386Z,11.75
2018-12-07T12:40:34.786Z,11.75
2018-12-07T12:41:35.187Z,11.76
2018-12-07T12:42:35.548Z,11.77
2018-12-07T12:43:35.591Z,11.78